Time;durP1;ratioP1;P1;durP2;ratioP2;P2;SDS_P1;SDS_P2;PMS_P1;PMS_P2;Temp;Humidity;BMP_temperature;BMP_pressure;BME280_temperature;BME280_humidity;BME280_pressure;Samples;Min_cycle;Max_cycle;Signal;HPM_P1;HPM_P2
2024/02/04 00:00:28;;;;;;;;;5.60;5.00;;;;;12.80;100.00;98681.00;6269319;27;96677;-54
2024/02/04 00:03:32;;;;;;;;;7.00;7.00;;;;;12.69;100.00;98679.16;6268784;27;96267;-54
2024/02/04 00:06:36;;;;;;;;;6.00;5.00;;;;;12.75;100.00;98678.19;6269245;27;96386;-55
2024/02/04 00:09:39;;;;;;;;;6.00;5.80;;;;;12.75;100.00;98673.63;6269011;27;96302;-54
2024/02/04 00:12:42;;;;;;;;;9.25;8.50;;;;;12.75;100.00;98665.50;6269194;27;96375;-54
2024/02/04 00:15:45;;;;;;;;;7.40;7.40;;;;;12.74;100.00;98663.03;6289066;27;96450;-59
2024/02/04 00:18:50;;;;;;;;;7.40;6.40;;;;;12.76;100.00;98669.81;6296229;27;96788;-60
2024/02/04 00:21:54;;;;;;;;;7.00;7.00;;;;;12.78;100.00;98665.00;6296217;27;97680;-59
2024/02/04 00:25:01;;;;;;;;;8.00;7.00;;;;;12.76;100.00;98650.06;6296886;27;96600;-59
2024/02/04 00:28:05;;;;;;;;;8.80;7.80;;;;;12.80;100.00;98649.38;6296433;27;96299;-60
2024/02/04 00:31:09;;;;;;;;;7.00;6.00;;;;;12.73;100.00;98645.97;6295760;27;96375;-60
2024/02/04 00:34:13;;;;;;;;;5.00;5.00;;;;;12.46;100.00;98582.72;6294909;27;96315;-59
2024/02/04 00:37:16;;;;;;;;;6.00;5.00;;;;;12.72;100.00;98633.50;6295862;27;96540;-59
2024/02/04 00:40:20;;;;;;;;;9.00;7.00;;;;;12.67;100.00;98632.56;6294361;27;96326;-60
2024/02/04 00:43:23;;;;;;;;;8.00;7.00;;;;;12.57;100.00;98620.50;6296167;27;96325;-59
2024/02/04 00:46:26;;;;;;;;;6.00;5.20;;;;;12.64;100.00;98635.78;6293676;27;96723;-59
2024/02/04 00:49:30;;;;;;;;;5.60;5.00;;;;;12.46;100.00;98637.56;6273217;27;98568;-59
2024/02/04 00:52:34;;;;;;;;;7.00;6.00;;;;;12.57;100.00;98647.56;6295316;27;96260;-60
2024/02/04 00:55:37;;;;;;;;;3.40;3.40;;;;;12.58;100.00;98638.38;6295861;27;96292;-60
2024/02/04 00:58:40;;;;;;;;;6.00;6.00;;;;;12.57;100.00;98654.84;6296408;27;96296;-60
2024/02/04 01:01:43;;;;;;;;;6.00;5.00;;;;;12.51;100.00;98659.31;6294866;27;96545;-60
2024/02/04 01:04:50;;;;;;;;;4.00;3.00;;;;;12.61;100.00;98657.91;6293716;27;97129;-58
2024/02/04 01:07:53;;;;;;;;;5.00;5.00;;;;;12.70;100.00;98642.94;6295699;27;96719;-59
2024/02/04 01:10:56;;;;;;;;;4.00;3.60;;;;;12.58;100.00;98624.03;6278451;27;97731;-59
2024/02/04 01:13:59;;;;;;;;;5.00;4.60;;;;;12.72;100.00;98635.38;6276435;27;96412;-59
2024/02/04 01:17:03;;;;;;;;;4.80;4.20;;;;;12.61;100.00;98634.34;6252912;27;96424;-59
2024/02/04 01:20:09;;;;;;;;;4.80;4.80;;;;;12.56;100.00;98640.50;6270498;27;96367;-59
2024/02/04 01:23:12;;;;;;;;;6.00;6.00;;;;;12.71;100.00;98639.13;6270171;27;96339;-59
2024/02/04 01:26:16;;;;;;;;;6.00;5.80;;;;;12.68;100.00;98637.75;6251159;28;96923;-59
2024/02/04 01:29:19;;;;;;;;;6.25;6.00;;;;;12.61;100.00;98633.56;6251218;28;98575;-60
2024/02/04 01:32:22;;;;;;;;;6.00;5.00;;;;;12.56;100.00;98624.25;6292533;27;96971;-57
2024/02/04 01:35:26;;;;;;;;;5.60;5.00;;;;;12.50;100.00;98619.03;6293638;27;96236;-59
2024/02/04 01:38:30;;;;;;;;;6.50;5.50;;;;;12.43;100.00;98613.75;6265356;27;98543;-58
2024/02/04 01:41:33;;;;;;;;;5.50;5.50;;;;;12.59;100.00;98631.09;6284334;27;96332;-60
2024/02/04 01:44:36;;;;;;;;;6.00;6.00;;;;;12.53;100.00;98632.03;6251514;28;96309;-60
2024/02/04 01:47:40;;;;;;;;;4.80;4.80;;;;;12.42;100.00;98633.72;6267628;28;96924;-59
2024/02/04 01:50:46;;;;;;;;;3.60;3.60;;;;;12.44;100.00;98623.50;6278854;27;96802;-60
2024/02/04 01:53:50;;;;;;;;;6.00;5.00;;;;;12.46;100.00;98624.06;6276103;27;96447;-59
2024/02/04 01:56:55;;;;;;;;;7.00;7.00;;;;;12.45;100.00;98617.03;6257874;27;98842;-58
2024/02/04 01:59:59;;;;;;;;;5.00;4.40;;;;;12.51;100.00;98612.56;6275854;27;96382;-59
2024/02/04 02:03:05;;;;;;;;;6.00;6.00;;;;;12.53;100.00;98607.72;6299539;22;98323;-57
2024/02/04 02:06:11;;;;;;;;;7.00;6.00;;;;;12.50;100.00;98609.03;6239542;28;97439;-57
2024/02/04 02:09:15;;;;;;;;;6.00;5.00;;;;;12.47;100.00;98598.69;6240833;28;96839;-57
2024/02/04 02:12:23;;;;;;;;;6.60;6.00;;;;;12.41;100.00;98577.22;6223076;28;96544;-57
2024/02/04 02:15:31;;;;;;;;;4.80;4.80;;;;;12.47;100.00;98585.16;6222997;28;96458;-57
2024/02/04 02:18:40;;;;;;;;;6.00;6.00;;;;;12.46;100.00;98594.31;6241235;28;96376;-57
2024/02/04 02:21:57;;;;;;;;;5.00;5.00;;;;;12.37;100.00;98576.84;6223186;28;96412;-56
2024/02/04 02:25:04;;;;;;;;;6.60;6.00;;;;;12.42;100.00;98581.53;6205425;28;98400;-56
2024/02/04 02:28:09;;;;;;;;;7.00;6.00;;;;;12.42;100.00;98592.34;6231409;28;96259;-56
2024/02/04 02:31:12;;;;;;;;;6.00;6.00;;;;;12.43;100.00;98591.28;6240967;28;96277;-57
2024/02/04 02:34:17;;;;;;;;;5.60;5.00;;;;;12.44;100.00;98593.75;6222661;28;96704;-56
2024/02/04 02:37:30;;;;;;;;;7.00;5.25;;;;;12.40;100.00;98579.09;6224057;28;96465;-56
2024/02/04 02:40:45;;;;;;;;;7.80;6.80;;;;;12.20;100.00;98584.09;6240858;28;96627;-57
2024/02/04 02:43:51;;;;;;;;;4.20;4.00;;;;;12.31;100.00;98580.53;6239923;28;97041;-57
2024/02/04 02:46:56;;;;;;;;;4.00;4.00;;;;;12.23;100.00;98588.19;6240223;28;96347;-57
2024/02/04 02:50:01;;;;;;;;;5.00;5.00;;;;;12.29;100.00;98606.16;6208457;28;96434;-57
2024/02/04 02:53:05;;;;;;;;;6.00;6.00;;;;;12.03;100.00;98554.28;6231483;28;96380;-57
2024/02/04 02:56:09;;;;;;;;;4.00;4.00;;;;;12.08;100.00;98592.22;6242078;28;96551;-57
2024/02/04 02:59:13;;;;;;;;;5.00;5.00;;;;;12.04;100.00;98609.13;6219451;28;96341;-57
2024/02/04 03:02:16;;;;;;;;;4.00;4.00;;;;;12.08;100.00;98613.81;6220249;28;96933;-57
2024/02/04 03:05:19;;;;;;;;;5.00;4.00;;;;;12.05;100.00;98627.81;6227177;28;96368;-57
2024/02/04 03:08:22;;;;;;;;;5.20;5.00;;;;;12.06;100.00;98650.25;6243178;28;96438;-58
2024/02/04 03:11:27;;;;;;;;;3.00;3.00;;;;;12.12;100.00;98655.53;6226250;28;96754;-58
2024/02/04 03:14:30;;;;;;;;;5.00;5.00;;;;;12.03;100.00;98651.53;6225862;28;96604;-57
2024/02/04 03:17:33;;;;;;;;;2.80;2.80;;;;;11.92;100.00;98660.50;6225402;28;96487;-57
2024/02/04 03:20:36;;;;;;;;;2.00;2.00;;;;;12.02;100.00;98659.91;6226180;28;96297;-58
2024/02/04 03:23:40;;;;;;;;;4.00;3.00;;;;;12.03;100.00;98654.25;6244278;28;96774;-58
2024/02/04 03:26:45;;;;;;;;;2.00;2.00;;;;;11.99;100.00;98654.97;6243829;28;96363;-58
2024/02/04 03:29:48;;;;;;;;;2.00;2.00;;;;;11.96;100.00;98661.66;6243692;28;96377;-58
2024/02/04 03:32:51;;;;;;;;;1.00;1.00;;;;;12.01;100.00;98648.28;6243106;28;96415;-58
2024/02/04 03:35:54;;;;;;;;;1.75;1.75;;;;;11.93;100.00;98640.50;6225164;28;96353;-58
2024/02/04 03:38:57;;;;;;;;;2.00;2.00;;;;;11.97;100.00;98632.78;6225556;28;97266;-58
2024/02/04 03:42:02;;;;;;;;;3.00;3.00;;;;;11.94;100.00;98611.63;6228438;27;96888;-58
2024/02/04 03:45:06;;;;;;;;;1.60;1.40;;;;;11.96;100.00;98634.66;6226011;28;96395;-57
2024/02/04 03:48:10;;;;;;;;;2.00;1.50;;;;;11.83;100.00;98621.38;6225717;28;96910;-57
2024/02/04 03:51:16;;;;;;;;;0.80;0.80;;;;;11.86;100.00;98631.72;6243372;28;96857;-57
2024/02/04 03:54:20;;;;;;;;;2.00;2.00;;;;;11.83;100.00;98634.06;6222705;28;96950;-57
2024/02/04 03:57:24;;;;;;;;;2.00;2.00;;;;;11.94;100.00;98639.47;6233422;27;96363;-57
2024/02/04 04:00:27;;;;;;;;;2.00;2.00;;;;;11.86;100.00;98633.59;6269344;27;96359;-57
2024/02/04 04:03:30;;;;;;;;;1.00;1.00;;;;;11.85;100.00;98642.75;6250057;27;96673;-57
2024/02/04 04:06:34;;;;;;;;;1.80;1.00;;;;;11.93;100.00;98631.56;6264175;27;96504;-57
2024/02/04 04:09:37;;;;;;;;;1.40;1.40;;;;;11.76;100.00;98630.66;6241698;27;96439;-58
2024/02/04 04:12:41;;;;;;;;;2.00;2.00;;;;;11.84;100.00;98631.13;6243787;28;96312;-58
2024/02/04 04:15:45;;;;;;;;;1.00;1.00;;;;;11.91;100.00;98642.66;6243775;27;96621;-58
2024/02/04 04:18:48;;;;;;;;;1.00;1.00;;;;;11.89;100.00;98639.34;6246698;27;96279;-58
2024/02/04 04:21:51;;;;;;;;;2.00;1.40;;;;;11.80;100.00;98646.16;6243335;27;96303;-57
2024/02/04 04:24:54;;;;;;;;;0.00;0.00;;;;;11.88;100.00;98643.09;6260554;27;96570;-57
2024/02/04 04:27:59;;;;;;;;;1.00;1.00;;;;;11.82;100.00;98649.47;6244401;27;96993;-57
2024/02/04 04:31:02;;;;;;;;;1.00;1.00;;;;;11.78;100.00;98642.06;6243676;27;96272;-57
2024/02/04 04:34:06;;;;;;;;;1.00;1.00;;;;;11.73;100.00;98630.06;6218703;28;97345;-58
2024/02/04 04:37:09;;;;;;;;;1.00;1.00;;;;;11.75;100.00;98635.25;6243347;28;96287;-58
2024/02/04 04:40:13;;;;;;;;;1.00;1.00;;;;;11.66;100.00;98634.75;6244995;27;96365;-58
2024/02/04 04:43:17;;;;;;;;;1.40;1.40;;;;;11.60;100.00;98627.56;6254512;27;96832;-58
2024/02/04 04:46:21;;;;;;;;;1.00;1.00;;;;;11.62;100.00;98633.59;6239260;28;97131;-58
2024/02/04 04:49:24;;;;;;;;;0.20;0.20;;;;;11.64;100.00;98628.75;6243705;27;96270;-58
2024/02/04 04:52:27;;;;;;;;;0.00;0.00;;;;;11.65;100.00;98632.28;6242894;28;96563;-58
2024/02/04 04:55:31;;;;;;;;;2.40;2.40;;;;;11.68;100.00;98627.22;6242104;28;96360;-58
2024/02/04 04:58:36;;;;;;;;;1.60;1.00;;;;;11.67;100.00;98622.06;6243562;27;96861;-58
2024/02/04 05:01:46;;;;;;;;;2.00;2.00;;;;;11.66;100.00;98618.53;6221555;28;97006;-58
2024/02/04 05:04:49;;;;;;;;;2.00;2.00;;;;;11.59;100.00;98620.53;6223263;28;96331;-58
2024/02/04 05:07:52;;;;;;;;;2.00;2.00;;;;;11.50;100.00;98616.53;6233390;28;96497;-57
2024/02/04 05:10:56;;;;;;;;;3.00;2.00;;;;;11.62;100.00;98617.38;6234331;27;96275;-57
2024/02/04 05:14:00;;;;;;;;;2.00;2.00;;;;;11.62;100.00;98616.56;6230898;27;96702;-57
2024/02/04 05:17:03;;;;;;;;;2.00;2.00;;;;;11.65;100.00;98613.38;6194260;28;96881;-57
2024/02/04 05:20:07;;;;;;;;;3.40;3.00;;;;;11.73;100.00;98623.84;6229640;27;96879;-57
2024/02/04 05:23:10;;;;;;;;;2.20;2.00;;;;;11.79;100.00;98620.19;6235729;27;97960;-57
2024/02/04 05:26:14;;;;;;;;;2.60;2.00;;;;;11.86;100.00;98630.91;6230049;28;96783;-57
2024/02/04 05:29:18;;;;;;;;;2.00;2.00;;;;;11.85;100.00;98632.78;6239640;27;96214;-57
2024/02/04 05:32:21;;;;;;;;;4.00;3.00;;;;;11.77;100.00;98633.13;6238909;28;96398;-58
2024/02/04 05:35:24;;;;;;;;;2.00;1.00;;;;;11.79;100.00;98652.63;6242922;27;96928;-55
2024/02/04 05:38:27;;;;;;;;;2.00;2.00;;;;;11.81;100.00;98638.88;6223052;28;96276;-55
2024/02/04 05:41:31;;;;;;;;;1.50;1.50;;;;;11.82;100.00;98637.84;6241659;27;96577;-55
2024/02/04 05:44:35;;;;;;;;;2.00;1.60;;;;;11.81;100.00;98630.78;6240595;28;96309;-55
2024/02/04 05:47:38;;;;;;;;;1.00;1.00;;;;;11.83;100.00;98620.53;6221234;28;96359;-56
2024/02/04 05:50:41;;;;;;;;;2.00;2.00;;;;;11.78;100.00;98621.25;6240622;28;96916;-56
2024/02/04 05:53:45;;;;;;;;;1.60;1.60;;;;;11.74;100.00;98633.59;6241637;27;96378;-55
2024/02/04 05:56:48;;;;;;;;;1.00;1.00;;;;;11.66;100.00;98648.25;6248876;27;96323;-55
2024/02/04 05:59:54;;;;;;;;;1.00;1.00;;;;;11.67;100.00;98644.50;6244191;27;96242;-55
2024/02/04 06:02:57;;;;;;;;;2.00;2.00;;;;;11.64;100.00;98658.44;6230557;28;96857;-53
2024/02/04 06:06:01;;;;;;;;;1.00;1.00;;;;;11.64;100.00;98654.91;6218655;28;96262;-53
2024/02/04 06:09:04;;;;;;;;;2.00;2.00;;;;;11.62;100.00;98648.94;6213846;28;96408;-54
2024/02/04 06:12:07;;;;;;;;;2.00;2.00;;;;;11.65;100.00;98657.41;6213747;28;96791;-53
2024/02/04 06:15:15;;;;;;;;;1.00;1.00;;;;;11.42;100.00;98645.75;6217756;28;96805;-53
2024/02/04 06:18:18;;;;;;;;;1.00;1.00;;;;;11.56;100.00;98669.59;6206783;28;96312;-53
2024/02/04 06:21:21;;;;;;;;;1.60;1.60;;;;;11.50;100.00;98670.53;6223814;28;96514;-53
2024/02/04 06:24:24;;;;;;;;;2.00;2.00;;;;;11.53;100.00;98659.25;6218981;28;96362;-52
2024/02/04 06:27:27;;;;;;;;;2.00;2.00;;;;;11.51;100.00;98660.56;6217993;28;96829;-54
2024/02/04 06:30:32;;;;;;;;;1.00;1.00;;;;;11.60;100.00;98648.34;6218288;28;96289;-52
2024/02/04 06:33:35;;;;;;;;;1.00;1.00;;;;;11.54;100.00;98635.78;6221223;28;96436;-55
2024/02/04 06:36:38;;;;;;;;;1.40;1.00;;;;;11.53;100.00;98626.84;6223082;28;96274;-53
2024/02/04 06:39:41;;;;;;;;;2.00;1.50;;;;;11.55;100.00;98629.34;6222201;28;96350;-53
2024/02/04 06:42:44;;;;;;;;;2.00;2.00;;;;;11.52;100.00;98637.91;6224201;28;96402;-52
2024/02/04 06:45:49;;;;;;;;;1.80;1.80;;;;;11.62;100.00;98648.94;6252409;27;96253;-58
2024/02/04 06:48:52;;;;;;;;;2.00;2.00;;;;;11.67;100.00;98655.31;6266247;27;96301;-58
2024/02/04 06:51:57;;;;;;;;;3.00;2.00;;;;;11.71;100.00;98642.16;6248533;28;96307;-58
2024/02/04 06:55:00;;;;;;;;;3.00;3.00;;;;;11.59;100.00;98644.81;6248076;28;96255;-59
2024/02/04 06:58:03;;;;;;;;;2.00;2.00;;;;;11.62;100.00;98651.66;6250619;28;96270;-59
2024/02/04 07:01:08;;;;;;;;;3.00;3.00;;;;;11.53;100.00;98626.06;6245499;28;96265;-59
2024/02/04 07:04:11;;;;;;;;;3.00;3.00;;;;;11.67;100.00;98652.59;6269743;27;96401;-57
2024/02/04 07:07:14;;;;;;;;;2.25;2.00;;;;;11.86;100.00;98650.63;6254530;27;96421;-58
2024/02/04 07:10:18;;;;;;;;;3.00;3.00;;;;;11.95;100.00;98642.97;6244576;27;96402;-57
2024/02/04 07:13:22;;;;;;;;;3.25;3.25;;;;;12.12;100.00;98657.41;6258972;27;96330;-58
2024/02/04 07:16:27;;;;;;;;;2.20;2.20;;;;;12.23;100.00;98667.38;6257045;27;96473;-57
2024/02/04 07:19:30;;;;;;;;;2.00;2.00;;;;;12.18;100.00;98640.25;6255029;27;96323;-57
2024/02/04 07:22:34;;;;;;;;;2.00;1.80;;;;;12.43;100.00;98642.66;6247220;27;97845;-56
2024/02/04 07:25:39;;;;;;;;;3.00;3.00;;;;;12.65;100.00;98635.53;6260104;28;97486;-57
2024/02/04 07:28:43;;;;;;;;;2.00;2.00;;;;;12.79;100.00;98642.31;6244637;27;98315;-57
2024/02/04 07:31:47;;;;;;;;;2.75;2.00;;;;;12.94;100.00;98648.00;6271730;28;96416;-57
2024/02/04 07:34:50;;;;;;;;;3.00;2.00;;;;;12.95;100.00;98665.84;6293978;27;97494;-58
2024/02/04 07:37:53;;;;;;;;;3.00;2.00;;;;;12.96;100.00;98672.09;6282717;27;96111;-58
2024/02/04 07:40:59;;;;;;;;;4.00;3.00;;;;;12.75;100.00;98654.69;6242825;27;96737;-58
2024/02/04 07:44:02;;;;;;;;;2.00;2.00;;;;;12.86;100.00;98661.91;6254111;27;96437;-57
2024/02/04 07:47:06;;;;;;;;;4.00;3.60;;;;;12.97;100.00;98654.81;6269892;27;96318;-58
2024/02/04 07:50:10;;;;;;;;;1.00;1.00;;;;;12.99;100.00;98658.91;6271503;27;96340;-56
2024/02/04 07:53:14;;;;;;;;;2.00;2.00;;;;;13.08;100.00;98659.34;6260642;27;96586;-56
2024/02/04 07:56:17;;;;;;;;;3.40;3.00;;;;;13.01;100.00;98662.19;6260808;27;96822;-56
2024/02/04 07:59:20;;;;;;;;;3.00;2.75;;;;;13.03;100.00;98668.19;6263933;27;96372;-57
2024/02/04 08:02:24;;;;;;;;;3.00;2.20;;;;;12.81;100.00;98666.38;6249212;27;97053;-58
2024/02/04 08:05:27;;;;;;;;;2.00;2.00;;;;;12.90;100.00;98637.91;6264377;27;96733;-59
2024/02/04 08:08:30;;;;;;;;;2.00;2.00;;;;;13.60;100.00;98668.09;6275241;27;96334;-58
2024/02/04 08:11:33;;;;;;;;;2.00;2.00;;;;;13.60;100.00;98687.06;6271863;27;96317;-58
2024/02/04 08:14:37;;;;;;;;;3.00;2.60;;;;;13.66;100.00;98677.16;6271128;27;96418;-57
2024/02/04 08:17:41;;;;;;;;;3.00;2.67;;;;;13.69;100.00;98669.34;6263604;27;96439;-57
2024/02/04 08:20:44;;;;;;;;;2.60;2.60;;;;;14.25;100.00;98672.88;6264681;27;96350;-56
2024/02/04 08:23:47;;;;;;;;;3.60;3.00;;;;;14.39;100.00;98690.47;6242005;27;96845;-58
2024/02/04 08:26:50;;;;;;;;;2.00;2.00;;;;;14.28;100.00;98689.47;6260535;27;98098;-57
2024/02/04 08:29:54;;;;;;;;;3.00;2.00;;;;;14.04;100.00;98690.75;6250433;27;96579;-57
2024/02/04 08:32:59;;;;;;;;;2.00;2.00;;;;;13.77;100.00;98695.22;6269287;27;96451;-57
2024/02/04 08:36:02;;;;;;;;;3.40;2.40;;;;;13.55;100.00;98692.41;6269181;27;96184;-56
2024/02/04 08:39:05;;;;;;;;;2.00;2.00;;;;;13.20;100.00;98698.00;6271606;27;96923;-58
2024/02/04 08:42:08;;;;;;;;;2.40;2.40;;;;;12.83;100.00;98696.75;6270803;27;97143;-56
2024/02/04 08:45:11;;;;;;;;;3.00;2.40;;;;;12.80;100.00;98705.34;6272308;27;97449;-57
2024/02/04 08:48:16;;;;;;;;;3.00;3.00;;;;;12.86;100.00;98702.47;6266347;27;96401;-56
2024/02/04 08:51:19;;;;;;;;;3.00;3.00;;;;;12.82;100.00;98695.09;6269610;27;96824;-56
2024/02/04 08:54:22;;;;;;;;;2.40;2.40;;;;;12.88;100.00;98691.44;6263771;27;96580;-56
2024/02/04 08:57:25;;;;;;;;;2.40;2.40;;;;;12.93;100.00;98696.94;6265953;27;96398;-56
2024/02/04 09:00:28;;;;;;;;;2.80;2.80;;;;;12.91;100.00;98705.28;6255967;27;96347;-57
2024/02/04 09:03:34;;;;;;;;;2.00;2.00;;;;;12.93;100.00;98691.53;6275225;27;97722;-56
2024/02/04 09:06:37;;;;;;;;;4.00;4.00;;;;;12.92;100.00;98701.53;6253924;27;96322;-53
2024/02/04 09:09:41;;;;;;;;;2.60;2.00;;;;;13.06;100.00;98698.53;6255869;27;96288;-53
2024/02/04 09:12:44;;;;;;;;;2.00;2.00;;;;;13.03;100.00;98703.38;6252913;27;96334;-53
2024/02/04 09:15:47;;;;;;;;;3.00;3.00;;;;;13.00;100.00;98701.13;6255596;27;96320;-53
2024/02/04 09:18:52;;;;;;;;;3.00;2.00;;;;;13.00;100.00;98708.44;6254778;27;96384;-53
2024/02/04 09:21:55;;;;;;;;;2.00;2.00;;;;;12.84;100.00;98718.16;6251179;27;96937;-54
2024/02/04 09:24:58;;;;;;;;;4.00;3.00;;;;;12.89;100.00;98715.56;6259492;27;96410;-53
2024/02/04 09:28:01;;;;;;;;;4.00;3.00;;;;;12.94;100.00;98733.75;6243936;27;96368;-54
2024/02/04 09:31:05;;;;;;;;;4.00;3.00;;;;;12.94;100.00;98694.00;6252273;27;96560;-53
2024/02/04 09:34:10;;;;;;;;;1.00;1.00;;;;;13.18;100.00;98724.53;6255633;27;96841;-54
2024/02/04 09:37:13;;;;;;;;;5.25;4.00;;;;;13.10;100.00;98714.03;6216533;27;96370;-53
2024/02/04 09:40:17;;;;;;;;;2.00;2.00;;;;;13.08;100.00;98735.13;6252522;27;96357;-54
2024/02/04 09:43:21;;;;;;;;;3.50;2.50;;;;;13.18;100.00;98738.06;6248018;27;96292;-55
2024/02/04 09:46:24;;;;;;;;;2.00;2.00;;;;;13.52;100.00;98738.13;6245785;27;96293;-56
2024/02/04 09:49:31;;;;;;;;;3.00;3.00;;;;;13.55;100.00;98733.03;6239602;27;96766;-53
2024/02/04 09:52:40;;;;;;;;;2.20;2.20;;;;;14.51;100.00;98721.00;6255313;27;96736;-53
2024/02/04 09:55:44;;;;;;;;;3.00;2.40;;;;;15.48;100.00;98729.19;6255856;27;96264;-54
2024/02/04 09:58:47;;;;;;;;;2.00;2.00;;;;;16.31;100.00;98725.00;6261165;27;96877;-53
2024/02/04 10:01:51;;;;;;;;;3.00;3.00;;;;;16.98;100.00;98726.97;6256284;27;97558;-54
2024/02/04 10:04:55;;;;;;;;;3.60;3.00;;;;;16.62;100.00;98711.56;6246708;27;96862;-54
2024/02/04 10:07:59;;;;;;;;;4.00;3.00;;;;;16.16;100.00;98703.13;6245649;27;96262;-55
2024/02/04 10:11:02;;;;;;;;;4.00;4.00;;;;;15.78;100.00;98692.50;6243578;27;96418;-54
2024/02/04 10:14:06;;;;;;;;;3.40;3.00;;;;;15.83;100.00;98700.72;6243977;28;96573;-56
2024/02/04 10:17:10;;;;;;;;;5.40;5.00;;;;;16.59;100.00;98703.94;6251225;27;97539;-56
2024/02/04 10:20:15;;;;;;;;;4.50;4.00;;;;;16.95;100.00;98702.19;6246279;27;97562;-58
2024/02/04 10:23:22;;;;;;;;;5.00;3.20;;;;;18.15;100.00;98703.41;6258154;27;96368;-57
2024/02/04 10:26:30;;;;;;;;;4.25;4.00;;;;;18.97;100.00;98696.63;6251325;27;96597;-57
2024/02/04 10:29:34;;;;;;;;;6.00;4.40;;;;;19.04;100.00;98680.75;6225553;27;96596;-57
2024/02/04 10:32:37;;;;;;;;;4.00;4.00;;;;;19.10;100.00;98682.38;6238887;27;96848;-58
2024/02/04 10:35:43;;;;;;;;;4.25;4.00;;;;;18.71;100.00;98657.72;6237946;27;96333;-57
2024/02/04 10:38:47;;;;;;;;;4.00;3.00;;;;;19.23;100.00;98654.41;6242540;27;96563;-58
2024/02/04 10:41:52;;;;;;;;;5.00;4.00;;;;;19.60;100.00;98656.59;6243055;27;97681;-58
2024/02/04 10:44:58;;;;;;;;;5.40;5.00;;;;;19.40;100.00;98660.28;6238365;27;96594;-57
2024/02/04 10:48:02;;;;;;;;;6.00;5.00;;;;;20.52;98.16;98637.41;6244798;27;98000;-58
2024/02/04 10:51:07;;;;;;;;;3.00;3.00;;;;;20.43;94.18;98623.53;6241293;27;96329;-57
2024/02/04 10:54:12;;;;;;;;;3.60;3.00;;;;;19.96;95.78;98618.81;6238023;28;96323;-57
2024/02/04 10:57:21;;;;;;;;;5.00;4.00;;;;;19.44;96.38;98616.84;6241937;27;96633;-57
2024/02/04 11:00:28;;;;;;;;;4.00;3.00;;;;;18.97;96.43;98611.94;6231936;28;96697;-57
2024/02/04 11:03:31;;;;;;;;;4.00;4.00;;;;;18.57;97.96;98613.78;6221400;28;96280;-57
2024/02/04 11:06:37;;;;;;;;;3.00;2.50;;;;;18.27;98.79;98607.63;6213378;28;96618;-57
2024/02/04 11:09:41;;;;;;;;;5.00;3.67;;;;;19.36;96.73;98598.25;6218634;28;96369;-57
2024/02/04 11:12:46;;;;;;;;;3.80;3.80;;;;;20.45;88.72;98587.63;6212142;28;97038;-57
2024/02/04 11:15:50;;;;;;;;;5.00;5.00;;;;;21.47;83.86;98594.13;6213150;28;96589;-57
2024/02/04 11:19:09;;;;;;;;;6.00;4.00;;;;;22.11;79.65;98586.97;6208777;28;96910;-57
2024/02/04 11:22:29;;;;;;;;;3.20;3.20;;;;;22.54;76.04;98579.22;6228918;28;96236;-57
2024/02/04 11:25:44;;;;;;;;;5.75;4.75;;;;;22.75;75.31;98582.38;6207587;28;96404;-57
2024/02/04 11:28:47;;;;;;;;;4.00;4.00;;;;;22.92;74.43;98555.03;6226855;28;96435;-57
2024/02/04 11:31:52;;;;;;;;;4.80;4.80;;;;;23.35;72.15;98565.59;6211320;28;96738;-58
2024/02/04 11:35:01;;;;;;;;;4.00;3.00;;;;;23.73;71.63;98553.06;6215084;28;96415;-58
2024/02/04 11:38:06;;;;;;;;;6.00;5.60;;;;;23.81;70.89;98552.28;6209845;28;97374;-58
2024/02/04 11:41:09;;;;;;;;;5.00;5.00;;;;;23.51;70.55;98550.34;6210185;28;97586;-57
2024/02/04 11:44:12;;;;;;;;;7.00;6.40;;;;;23.65;71.86;98559.34;6209745;28;96291;-57
2024/02/04 11:47:23;;;;;;;;;4.60;4.60;;;;;23.89;71.20;98542.47;6228231;28;96486;-57
2024/02/04 11:50:30;;;;;;;;;5.00;5.00;;;;;23.64;70.56;98546.72;6226668;28;96176;-57
2024/02/04 11:53:35;;;;;;;;;6.60;5.60;;;;;23.09;73.88;98544.19;6229505;28;96515;-57
2024/02/04 11:56:39;;;;;;;;;5.00;4.00;;;;;22.66;75.27;98541.03;6230510;28;96312;-57
2024/02/04 11:59:44;;;;;;;;;6.25;6.00;;;;;22.26;76.87;98539.97;6218948;28;96892;-58
2024/02/04 12:02:47;;;;;;;;;5.00;5.00;;;;;21.86;79.55;98516.03;6231271;27;96746;-57
2024/02/04 12:05:51;;;;;;;;;5.50;5.50;;;;;21.54;80.32;98504.03;6242468;28;96304;-57
2024/02/04 12:08:56;;;;;;;;;5.00;4.00;;;;;20.82;84.06;98485.50;6242688;28;96526;-57
2024/02/04 12:11:59;;;;;;;;;5.00;5.00;;;;;20.15;88.35;98471.09;6242311;28;96472;-57
2024/02/04 12:15:04;;;;;;;;;5.00;5.00;;;;;19.07;92.75;98474.44;6242592;28;96309;-57
2024/02/04 12:18:07;;;;;;;;;5.00;5.00;;;;;17.99;99.51;98457.13;6242517;27;96224;-57
2024/02/04 12:21:11;;;;;;;;;7.40;6.00;;;;;17.41;100.00;98455.13;6242963;28;96295;-57
2024/02/04 12:24:15;;;;;;;;;8.40;7.40;;;;;16.93;100.00;98451.94;6246332;28;97112;-58
2024/02/04 12:27:19;;;;;;;;;7.75;7.00;;;;;16.40;100.00;98451.31;6245980;28;96422;-57
2024/02/04 12:30:22;;;;;;;;;7.00;6.25;;;;;15.95;100.00;98449.31;6246592;27;96534;-57
2024/02/04 12:33:25;;;;;;;;;7.75;7.75;;;;;15.69;100.00;98433.16;6237059;27;96347;-57
2024/02/04 12:36:30;;;;;;;;;11.00;9.60;;;;;15.36;100.00;98427.00;6237692;28;99516;-57
2024/02/04 12:39:34;;;;;;;;;9.60;8.80;;;;;15.05;100.00;98420.56;6246272;27;96525;-57
2024/02/04 12:42:38;;;;;;;;;9.67;8.00;;;;;14.82;100.00;98415.53;6248179;27;97024;-57
2024/02/04 12:45:42;;;;;;;;;9.00;8.00;;;;;14.74;100.00;98421.44;6238243;27;97415;-57
2024/02/04 12:48:45;;;;;;;;;7.40;7.40;;;;;14.57;100.00;98407.19;6237238;27;96396;-57
2024/02/04 12:51:48;;;;;;;;;7.20;7.20;;;;;14.40;100.00;98414.66;6233332;27;96698;-57
2024/02/04 12:54:54;;;;;;;;;11.00;10.40;;;;;14.27;100.00;98411.25;6243957;27;96430;-56
2024/02/04 12:58:05;;;;;;;;;11.00;10.00;;;;;14.23;100.00;98402.00;6242948;27;96940;-57
2024/02/04 13:01:08;;;;;;;;;9.40;8.00;;;;;14.18;100.00;98420.09;6237832;28;96777;-56
2024/02/04 13:04:11;;;;;;;;;8.80;8.20;;;;;14.03;100.00;98406.38;6257129;27;96277;-56
2024/02/04 13:07:16;;;;;;;;;9.60;8.00;;;;;14.05;100.00;98423.22;6237581;27;96825;-56
2024/02/04 13:10:22;;;;;;;;;8.00;6.50;;;;;14.04;100.00;98422.41;6229207;27;96652;-57
2024/02/04 13:13:27;;;;;;;;;9.00;7.40;;;;;14.01;100.00;98424.81;6230745;27;96197;-58
2024/02/04 13:16:30;;;;;;;;;9.80;8.80;;;;;13.98;100.00;98420.69;6227184;27;97603;-57
2024/02/04 13:19:34;;;;;;;;;10.00;8.40;;;;;13.94;100.00;98402.50;6226742;27;96523;-57
2024/02/04 13:22:38;;;;;;;;;7.00;6.80;;;;;13.83;100.00;98398.84;6229764;27;96895;-57
2024/02/04 13:25:42;;;;;;;;;10.00;7.00;;;;;13.77;100.00;98392.59;6238157;27;96404;-57
2024/02/04 13:28:45;;;;;;;;;7.75;7.75;;;;;13.68;100.00;98374.34;6254617;27;96333;-57
2024/02/04 13:31:48;;;;;;;;;8.00;7.00;;;;;13.74;100.00;98373.28;6237766;28;96375;-57
2024/02/04 13:34:52;;;;;;;;;8.50;8.50;;;;;13.76;100.00;98358.44;6232814;27;96266;-57
2024/02/04 13:38:08;;;;;;;;;8.00;8.00;;;;;13.74;100.00;98362.47;6234110;27;96324;-57
2024/02/04 13:41:13;;;;;;;;;9.00;8.00;;;;;13.76;100.00;98374.69;6235027;27;96874;-57
2024/02/04 13:44:16;;;;;;;;;7.60;7.00;;;;;13.66;100.00;98366.44;6245106;27;96385;-59
2024/02/04 13:47:19;;;;;;;;;6.80;6.00;;;;;13.58;100.00;98364.19;6234854;27;98478;-56
2024/02/04 13:50:30;;;;;;;;;7.00;7.00;;;;;13.55;100.00;98364.69;6247087;27;96479;-56
2024/02/04 13:53:37;;;;;;;;;9.00;9.00;;;;;13.49;100.00;98351.38;6250446;27;96423;-57
2024/02/04 13:56:42;;;;;;;;;8.00;7.50;;;;;13.55;100.00;98380.94;6233635;27;96766;-57
2024/02/04 13:59:45;;;;;;;;;7.00;7.00;;;;;13.60;100.00;98388.31;6249696;27;96548;-57
2024/02/04 14:02:48;;;;;;;;;8.40;7.40;;;;;13.60;100.00;98391.00;6252892;27;97735;-57
2024/02/04 14:05:52;;;;;;;;;7.00;7.00;;;;;13.58;100.00;98393.19;6234485;27;96435;-57
2024/02/04 14:08:55;;;;;;;;;9.00;7.75;;;;;13.62;100.00;98400.53;6232380;27;96549;-57
2024/02/04 14:11:59;;;;;;;;;7.00;6.20;;;;;13.50;100.00;98407.13;6229873;27;96382;-57
2024/02/04 14:15:02;;;;;;;;;7.40;7.40;;;;;13.39;100.00;98400.78;6234289;27;96895;-57
2024/02/04 14:18:06;;;;;;;;;7.00;7.00;;;;;13.29;100.00;98389.84;6255563;22;96662;-90